Tiempo atmosférico en la estación meteorológica de Lalastra, Araba/Álava (910 m.)



Fecha
DESCASC
Temp. máxima en grados centígrados (hora)
DESCASC
Temp. mínima en grados centígrados (hora)
DESCASC
Temp. media en grados centígrados
DESCASC
Racha de viento máxima en m/sg (hora)
DESCASC
Velocidad máxima media en intervalos de 10 minutos(hora)
DESCASC
Precipitaciones diarias en mm
DESCASC
Precipitaciones de 00:00 a 06:00 en mm
DESCASC
Precipitaciones de 06:00 a 12:00 en mm
DESCASC
Precipitaciones de 12:00 a 18:00 en mm
DESCASC
Precipitaciones de 18:00 a 24:00 en mm
DESCASC
22-08-2019 26.1 (15:00) 6.2 (07:50) 16.2 7.5 (11:20) 2.78 (11:20) 0 0 0 0 0
21-08-2019 25.2 (14:40) 10.5 (08:00) 17.9 10.56 (17:20) 3.89 (18:20) 0 0 0 0 0
20-08-2019 16.4 (17:30) 10.8 (06:50) 13.6 10.28 (07:20) 5.28 (06:20) 2.2 1.6 0.6 0 0
19-08-2019 13.8 (17:20) 11.1 (01:00) 12.5 6.94 (14:10) 2.5 (00:30) 0 0 0 0 0
18-08-2019 25.5 (15:00) 11.5 (00:00) 18.5 10.83 (16:30) 4.44 (17:30) 0 0 0 0 0
17-08-2019 32.9 (16:50) 9.6 (00:00) 21.3 9.44 (18:40) 4.72 (18:40) 0 0 0 0 0
16-08-2019 31.4 (16:10) 6.6 (00:00) 19 8.33 (16:30) 3.89 (16:30) 0 0 0 0 0
15-08-2019 23 (16:40) 10.9 (00:00) 16.9 8.06 (15:20) 3.33 (15:30) 0 0 0 0 0
14-08-2019 27.4 (15:10) 7 (00:00) 17.2 7.78 (18:20) 3.61 (15:20) 0 0 0 0 0
13-08-2019 21.5 (16:30) 7.6 (00:00) 14.5 6.67 (16:30) 3.06 (17:20) 0 0 0 0 0
12-08-2019 18.3 (13:50) 7.6 (00:00) 12.9 8.33 (17:10) 4.17 (17:10) 0 0 0 0 0
11-08-2019 18.7 (14:30) 11.3 (00:00) 15 8.61 (19:30) 3.89 (19:30) 4.8 1.6 1.4 1.8 0
10-08-2019 21.5 (13:40) 10.7 (00:00) 16.1 9.17 (16:40) 4.17 (16:50) 0 0 0 0 0
09-08-2019 27.2 (17:30) 16 (00:00) 21.6 14.72 (17:50) 5.83 (05:20) 1 0 0 1 0
08-08-2019 28.9 (18:40) 16.9 (00:00) 22.9 13.89 (13:20) 6.67 (14:00) 0 0 0 0 0
07-08-2019 26.3 (14:40) 13.7 (00:00) 20 10.56 (19:30) 4.17 (19:30) 0 0 0 0 0
06-08-2019 29.4 (15:10) 10.2 (00:00) 19.8 8.61 (17:20) 3.89 (17:20) 1 0 0 0 1
05-08-2019 26.9 (16:20) 10.5 (00:00) 18.7 9.44 (17:40) 3.61 (17:40) 0 0 0 0 0
04-08-2019 26.6 (15:20) 15.2 (00:00) 20.9 8.06 (19:50) 3.89 (19:10) 0 0 0 0 0
03-08-2019 31.2 (16:50) 9 (00:00) 20.1 8.33 (19:50) 3.61 (19:40) 0 0 0 0 0
02-08-2019 25.8 (17:30) 13.6 (00:00) 19.7 6.39 (16:20) 3.06 (17:00) 0 0 0 0 0
01-08-2019 19.3 (16:10) 12.9 (00:00) 16.1 6.39 (03:40) 3.06 (04:10) 10 10 0 0 0
31-07-2019 22.1 (16:20) 6.8 (00:00) 14.5 6.67 (20:00) 3.33 (19:50) 0 0 0 0 0
30-07-2019 20.2 (17:00) 9.7 (00:00) 15 8.61 (19:10) 4.17 (17:10) 0 0 0 0 0
29-07-2019 26.5 (15:00) 9.2 (00:00) 17.8 10.28 (18:10) 5 (10:40) 0 0 0 0 0
28-07-2019 22.5 (17:30) 8.1 (00:00) 15.3 6.11 (19:00) 2.5 (18:20) 0 0 0 0 0
27-07-2019 15 (15:30) 10.4 (00:00) 12.7 6.94 (20:50) 2.78 (08:30) 6.4 0 2.8 3.6 0
26-07-2019 16.8 (00:00) 12.4 (00:00) 14.6 8.61 (19:20) 3.89 (13:30) 9.4 1.4 1.6 6.4 0
25-07-2019 34 (16:50) 15.5 (00:00) 24.8 10.83 (18:50) 5 (19:00) 1.6 0 0 0 1.6
24-07-2019 35.1 (16:20) 14.2 (00:00) 24.6 9.72 (16:40) 4.44 (16:40) 0 0 0 0 0

Gráficas

Temp. máximas Temp. mínimas Temp. medias Precipitaciones Rachas de viento máximas Velocidades máximas media en intervalos de 10 minutos

Datos horarios

Fecha y hora oficial Temperatura (ºC) Velocidad del viento (km/h) Dirección del viento Racha (km/h) Dirección de racha Precipitación (mm) Presión (hPa) Tendencia (hPa) Humedad (%)
2019-08-22 23:00:00 11.6 3 Nordeste 7 Nordeste 0 -- -- 80
2019-08-22 22:00:00 14.8 0 Calma 12 Este 0 -- -- 69
2019-08-22 21:00:00 18.2 3 Sur 21 Este 0 -- -- 60
2019-08-22 20:00:00 20.9 4 Nordeste 22 Norte 0 -- -- 49
2019-08-22 19:00:00 23.1 9 Sudeste 22 Sudeste 0 -- -- 39
2019-08-22 18:00:00 24.8 10 Sur 22 Sur 0 -- -- 34
2019-08-22 17:00:00 25.4 9 Este 23 Este 0 -- -- 31
2019-08-22 16:00:00 25.6 9 Este 22 Nordeste 0 -- -- 32
2019-08-22 15:00:00 26.1 8 Norte 22 Norte 0 -- -- 32
2019-08-22 14:00:00 24.5 7 Nordeste 19 Sudeste 0 -- -- 34
2019-08-22 13:00:00 23.2 6 Nordeste 20 Este 0 -- -- 37
2019-08-22 12:00:00 21.8 8 Nordeste 27 Este 0 -- -- 42
2019-08-22 11:00:00 19.8 10 Este 21 Este 0 -- -- 45
2019-08-22 10:00:00 16.8 4 Este 12 Nordeste 0 -- -- 58
2019-08-22 09:00:00 8.9 2 Oeste 9 Norte 0 -- -- 99
2019-08-22 08:00:00 6.2 0 Calma 5 Nordeste 0 -- -- 97
2019-08-22 07:00:00 6.4 0 Calma 6 Nordeste 0 -- -- 96
2019-08-22 06:00:00 6.8 0 Calma 5 Nordeste 0 -- -- 95
2019-08-22 05:00:00 7.2 0 Calma 7 Nordeste 0 -- -- 94
2019-08-22 04:00:00 7.9 0 Calma 6 Sudeste 0 -- -- 93
2019-08-22 03:00:00 9 2 Noroeste 6 Sudoeste 0 -- -- 91
2019-08-22 02:00:00 10.7 2 Norte 12 Este 0 -- -- 84
2019-08-22 01:00:00 12.2 4 Este 18 Nordeste 0 -- -- 76
2019-08-22 00:00:00 13.3 4 Este 17 Nordeste 0 -- -- 79
2019-08-21 23:00:00 14.4 5 Este 14 Este 0 -- -- 87
2019-08-21 22:00:00 15.3 8 Nordeste 24 Sudeste 0 -- -- 87
2019-08-21 21:00:00 16.3 8 Nordeste 24 Nordeste 0 -- -- 83
2019-08-21 20:00:00 18.2 10 Nordeste 28 Norte 0 -- -- 75
2019-08-21 19:00:00 20.1 10 Nordeste 27 Noroeste 0 -- -- 68
2019-08-21 18:00:00 22.7 13 Norte 38 Noroeste 0 -- -- 57
2019-08-21 17:00:00 24.5 10 Este 22 Este 0 -- -- 52
2019-08-21 16:00:00 24.5 8 Este 23 Este 0 -- -- 50
2019-08-21 15:00:00 25.1 6 Noroeste 20 Nordeste 0 -- -- 46
2019-08-21 14:00:00 23.7 5 Nordeste 17 Este 0 -- -- 53
2019-08-21 13:00:00 21.8 4 Nordeste 12 Este 0 -- -- 57
2019-08-21 12:00:00 20.5 4 Nordeste 11 Nordeste 0 -- -- 60
2019-08-21 11:00:00 18.2 4 Este 10 Nordeste 0 -- -- 70
2019-08-21 10:00:00 15 3 Nordeste 8 Sudeste 0 -- -- 80
2019-08-21 09:00:00 11.4 0 Calma 3 Oeste 0 -- -- 97
2019-08-21 08:00:00 10.5 0 Calma 6 Sudoeste 0 -- -- 94
2019-08-21 07:00:00 11.4 0 Calma 6 Sudeste 0 -- -- 93
2019-08-21 06:00:00 12 4 Este 11 Sudeste 0 -- -- 93
2019-08-21 05:00:00 12 3 Este 13 Este 0 -- -- 93
2019-08-21 04:00:00 12 3 Sudeste 15 Sudeste 0 -- -- 93
2019-08-21 03:00:00 12 4 Sudeste 12 Sudeste 0 -- -- 94
2019-08-21 02:00:00 12.1 4 Sudeste 14 Sudeste 0 -- -- 93
2019-08-21 01:00:00 12.1 3 Este 21 Sudeste 0 -- -- 93
2019-08-21 00:00:00 12.2 4 Sudeste 13 Sudeste 0 -- -- 92
2019-08-20 23:00:00 12.4 5 Este 21 Este 0 -- -- 90
2019-08-20 22:00:00 13 4 Nordeste 15 Sudeste 0 -- -- 86
2019-08-20 21:00:00 13.8 4 Sur 18 Sudeste 0 -- -- 84
2019-08-20 20:00:00 14.6 5 Sudoeste 19 Oeste 0 -- -- 79
2019-08-20 19:00:00 15.5 9 Noroeste 25 Noroeste 0 -- -- 76
2019-08-20 18:00:00 15.7 9 Noroeste 29 Norte 0 -- -- 72
2019-08-20 17:00:00 15.9 13 Noroeste 21 Norte 0 -- -- 71
2019-08-20 16:00:00 14.6 10 Noroeste 21 Noroeste 0 -- -- 80
2019-08-20 15:00:00 14.5 9 Norte 22 Noroeste 0 -- -- 79
2019-08-20 14:00:00 15.8 7 Sudoeste 19 Oeste 0 -- -- 76
2019-08-20 13:00:00 13.9 7 Este 22 Noroeste 0 -- -- 82
2019-08-20 12:00:00 13.8 7 Norte 17 Nordeste 0 -- -- 93
2019-08-20 11:00:00 11.9 4 Nordeste 24 Este 0.6 -- -- 95
2019-08-20 10:00:00 11.8 5 Sudeste 17 Este 0 -- -- 94
2019-08-20 09:00:00 11.3 7 Noroeste 18 Noroeste 0 -- -- 97
2019-08-20 08:00:00 11 3 Sur 37 Norte 0 -- -- 96
2019-08-20 07:00:00 10.8 14 Noroeste 35 Norte 0 -- -- 98
2019-08-20 06:00:00 11.3 16 Noroeste 31 Noroeste 0 -- -- 98
2019-08-20 05:00:00 11.2 8 Noroeste 23 Noroeste 0 -- -- 97
2019-08-20 04:00:00 11.2 7 Oeste 23 Nordeste 0 -- -- 97
2019-08-20 03:00:00 11.2 7 Este 24 Este 0 -- -- 96
2019-08-20 02:00:00 11.3 4 Oeste 22 Nordeste 1.4 -- -- 97
2019-08-20 01:00:00 11.8 6 Sur 18 Oeste 0.2 -- -- 97
2019-08-20 00:00:00 11.8 6 Sudoeste 20 Este 0 -- -- 96
2019-08-19 23:00:00 11.9 6 Oeste 18 Noroeste 0 -- -- 96
2019-08-19 22:00:00 12.2 4 Oeste 20 Oeste 0 -- -- 93
2019-08-19 21:00:00 12.6 5 Oeste 15 Este 0 -- -- 89
2019-08-19 20:00:00 13.1 6 Nordeste 17 Este 0 -- -- 86
2019-08-19 19:00:00 13.5 6 Este 19 Sur 0 -- -- 83
2019-08-19 18:00:00 13.5 4 Sudoeste 15 Noroeste 0 -- -- 85
2019-08-19 17:00:00 13.5 6 Norte 19 Sudeste 0 -- -- 84
2019-08-19 16:00:00 13.1 6 Noroeste 17 Oeste 0 -- -- 90
2019-08-19 15:00:00 13.4 5 Oeste 25 Sudoeste 0 -- -- 89
2019-08-19 14:00:00 13.1 4 Sur 18 Este 0 -- -- 90
2019-08-19 13:00:00 12.3 7 Sur 18 Este 0 -- -- 91
2019-08-19 12:00:00 11.6 5 Sur 15 Nordeste 0 -- -- 95
2019-08-19 11:00:00 12 4 Nordeste 15 Nordeste 0 -- -- 95
2019-08-19 10:00:00 11.4 6 Norte 18 Norte 0 -- -- 97
2019-08-19 09:00:00 11.3 4 Sur 13 Este 0 -- -- 97
2019-08-19 08:00:00 11.1 5 Sudeste 15 Este 0 -- -- 97
2019-08-19 07:00:00 11.3 5 Nordeste 14 Nordeste 0 -- -- 97
2019-08-19 06:00:00 11.4 3 Sudoeste 9 Sudeste 0 -- -- 96
2019-08-19 05:00:00 11.2 3 Sudoeste 15 Este 0 -- -- 96
2019-08-19 04:00:00 11.2 4 Noroeste 11 Este 0 -- -- 94
2019-08-19 03:00:00 11.2 2 Este 19 Nordeste 0 -- -- 94
2019-08-19 02:00:00 11.2 5 Nordeste 21 Nordeste 0 -- -- 95
2019-08-19 01:00:00 11.1 8 Nordeste 24 Este 0 -- -- 96
2019-08-19 00:00:00 11.5 7 Nordeste 24 Este 0 -- -- 98
2019-08-18 23:00:00 11.8 8 Nordeste 24 Nordeste 0 -- -- 97
2019-08-18 22:00:00 12.6 10 Norte 23 Norte 0 -- -- 96
2019-08-18 21:00:00 13.3 9 Nordeste 34 Norte 0 -- -- 95
2019-08-18 20:00:00 14 7 Nordeste 27 Noroeste 0 -- -- 93
2019-08-18 19:00:00 15 9 Nordeste 29 Nordeste 0 -- -- 88
2019-08-18 18:00:00 15.9 10 Nordeste 34 Norte 0 -- -- 86
2019-08-18 17:00:00 19.4 12 Nordeste 39 Norte 0 -- -- 77
2019-08-18 16:00:00 23.1 11 Nordeste 30 Este 0 -- -- 64
2019-08-18 15:00:00 25.5 10 Norte 28 Este 0 -- -- 55
2019-08-18 14:00:00 24.1 7 Nordeste 24 Nordeste 0 -- -- 59
2019-08-18 13:00:00 23.2 8 Este 23 Nordeste 0 -- -- 59
2019-08-18 12:00:00 23.7 7 Este 17 Este 0 -- -- 50
2019-08-18 11:00:00 23.8 6 Nordeste 15 Sudeste 0 -- -- 48
2019-08-18 10:00:00 23.2 4 Sur 22 Sudoeste 0 -- -- 49
2019-08-18 09:00:00 17.6 12 Sudoeste 24 Sudoeste 0 -- -- 63
2019-08-18 08:00:00 12.1 3 Sudoeste 9 Sudoeste 0 -- -- 84
2019-08-18 07:00:00 12.4 0 Calma 11 Este 0 -- -- 83
2019-08-18 06:00:00 11.7 2 Norte 7 Sur 0 -- -- 87
2019-08-18 05:00:00 11.7 0 Calma 6 Este 0 -- -- 86
2019-08-18 04:00:00 12.6 0 Calma 5 Norte 0 -- -- 85
2019-08-18 03:00:00 12.4 3 Este 5 Este 0 -- -- 90
2019-08-18 02:00:00 12.8 0 Calma 4 Nordeste 0 -- -- 90
2019-08-18 01:00:00 13.4 0 Calma 7 Este 0 -- -- 87
2019-08-18 00:00:00 14.7 0 Calma 6 Este 0 -- -- 82
2019-08-17 23:00:00 16.5 3 Este 8 Nordeste 0 -- -- 76
2019-08-17 22:00:00 19.3 0 Calma 12 Nordeste 0 -- -- 69
2019-08-17 21:00:00 22.2 6 Este 25 Nordeste 0 -- -- 61
2019-08-17 20:00:00 25.3 9 Nordeste 23 Nordeste 0 -- -- 50
2019-08-17 19:00:00 28.5 6 Nordeste 34 Noroeste 0 -- -- 39
2019-08-17 18:00:00 30.7 16 Nordeste 30 Nordeste 0 -- -- 32
2019-08-17 17:00:00 32.8 5 Este 26 Noroeste 0 -- -- 29
2019-08-17 16:00:00 32.4 7 Oeste 20 Sur 0 -- -- 27
2019-08-17 15:00:00 30.3 6 Nordeste 19 Noroeste 0 -- -- 33
2019-08-17 14:00:00 28.8 6 Nordeste 16 Sudeste 0 -- -- 34
2019-08-17 13:00:00 27.2 6 Oeste 23 Sudoeste 0 -- -- 39
2019-08-17 12:00:00 24.7 4 Sur 17 Sur 0 -- -- 46
2019-08-17 11:00:00 23.7 4 Sur 13 Sur 0 -- -- 44
2019-08-17 10:00:00 19.6 3 Sudoeste 7 Noroeste 0 -- -- 58
2019-08-17 09:00:00 12.3 0 Calma 6 Este 0 -- -- 80
2019-08-17 08:00:00 9.7 3 Este 4 Este 0 -- -- 84
2019-08-17 07:00:00 9.9 0 Calma 5 Este 0 -- -- 84
2019-08-17 06:00:00 10.3 2 Este 5 Sudeste 0 -- -- 80
2019-08-17 05:00:00 10.4 2 Este 8 Este 0 -- -- 78
2019-08-17 04:00:00 11.2 0 Calma 5 Este 0 -- -- 75
2019-08-17 03:00:00 11.9 0 Calma 4 Sudeste 0 -- -- 74
2019-08-17 02:00:00 12.8 0 Calma 7 Este 0 -- -- 74
2019-08-17 01:00:00 14.3 3 Sur 6 Este 0 -- -- 71
2019-08-17 00:00:00 15.6 3 Sudeste 8 Nordeste 0 -- -- 73
2019-08-16 23:00:00 16.3 2 Norte 8 Nordeste 0 -- -- 72
2019-08-16 22:00:00 18.7 2 Sudeste 6 Noroeste 0 -- -- 63
2019-08-16 21:00:00 21.1 3 Sur 23 Nordeste 0 -- -- 57
2019-08-16 20:00:00 23.7 10 Este 25 Este 0 -- -- 52
2019-08-16 19:00:00 26 12 Este 27 Nordeste 0 -- -- 47
2019-08-16 18:00:00 28.6 9 Nordeste 28 Nordeste 0 -- -- 41
2019-08-16 17:00:00 29.6 11 Norte 30 Este 0 -- -- 40
2019-08-16 16:00:00 31.3 5 Norte 19 Oeste 0 -- -- 34
2019-08-16 15:00:00 29.8 8 Oeste 18 Oeste 0 -- -- 37
2019-08-16 14:00:00 28.7 12 Noroeste 22 Oeste 0 -- -- 38
2019-08-16 13:00:00 27.7 8 Sudoeste 19 Sudoeste 0 -- -- 39
2019-08-16 12:00:00 25 5 Sur 13 Sudoeste 0 -- -- 42
2019-08-16 11:00:00 21.8 6 Sur 12 Sudoeste 0 -- -- 48
2019-08-16 10:00:00 16.8 2 Sudoeste 4 Sudoeste 0 -- -- 71
2019-08-16 09:00:00 9.7 0 Calma 4 Este 0 -- -- 100
2019-08-16 08:00:00 6.9 2 Este 3 Sudeste 0 -- -- 96
2019-08-16 07:00:00 6.8 0 Calma 3 Este 0 -- -- 95
2019-08-16 06:00:00 7.2 0 Calma 4 Nordeste 0 -- -- 95
2019-08-16 05:00:00 7.7 3 Este 4 Nordeste 0 -- -- 96
2019-08-16 04:00:00 7.9 0 Calma 4 Este 0 -- -- 95
2019-08-16 03:00:00 8.5 2 Nordeste 4 Norte 0 -- -- 95
2019-08-16 02:00:00 9.2 2 Sudeste 4 Sudeste 0 -- -- 94
2019-08-16 01:00:00 10.1 0 Calma 5 Sudeste 0 -- -- 92
2019-08-16 00:00:00 10.9 0 Calma 5 Nordeste 0 -- -- 91
2019-08-15 23:00:00 12.1 0 Calma 5 Nordeste 0 -- -- 89
2019-08-15 22:00:00 13.8 0 Calma 9 Este 0 -- -- 85
2019-08-15 21:00:00 15.8 4 Este 18 Este 0 -- -- 80
2019-08-15 20:00:00 17.2 8 Nordeste 24 Nordeste 0 -- -- 75
2019-08-15 19:00:00 18.9 8 Nordeste 23 Nordeste 0 -- -- 69
2019-08-15 18:00:00 20.8 10 Nordeste 28 Norte 0 -- -- 64
2019-08-15 17:00:00 22.1 7 Nordeste 21 Este 0 -- -- 61
2019-08-15 16:00:00 22.2 8 Nordeste 29 Este 0 -- -- 56
2019-08-15 15:00:00 22.3 9 Nordeste 23 Este 0 -- -- 55
2019-08-15 14:00:00 22 6 Norte 20 Este 0 -- -- 55
2019-08-15 13:00:00 20.8 6 Nordeste 19 Nordeste 0 -- -- 62
2019-08-15 12:00:00 18.8 5 Sudeste 15 Este 0 -- -- 72
2019-08-15 11:00:00 16.5 5 Este 18 Nordeste 0 -- -- 79
2019-08-15 10:00:00 15.5 5 Nordeste 14 Este 0 -- -- 88
2019-08-15 09:00:00 14.4 5 Este 13 Nordeste 0 -- -- 94
2019-08-15 08:00:00 14.5 0 Calma 10 Nordeste 0 -- -- 93
2019-08-15 07:00:00 15.1 5 Nordeste 9 Este 0 -- -- 94
2019-08-15 06:00:00 15.3 0 Calma 6 Nordeste 0 -- -- 95
2019-08-15 05:00:00 15 0 Calma -- -- 0 -- -- 94
2019-08-15 04:00:00 14.4 0 Calma 4 Nordeste 0 -- -- 93
2019-08-15 03:00:00 13.8 0 Calma 5 Norte 0 -- -- 94
2019-08-15 02:00:00 13 0 Calma 4 Este 0 -- -- 94
2019-08-15 01:00:00 13 0 Calma 2 Sur 0 -- -- 91
2019-08-15 00:00:00 14.4 0 Calma 5 Sudoeste 0 -- -- 88
2019-08-14 23:00:00 15.6 3 Sudoeste 10 Norte 0 -- -- 86
2019-08-14 22:00:00 16.5 4 Noroeste 14 Norte 0 -- -- 79
2019-08-14 21:00:00 18.8 4 Nordeste 22 Norte 0 -- -- 65
2019-08-14 20:00:00 20.7 8 Nordeste 22 Nordeste 0 -- -- 56
2019-08-14 19:00:00 22.1 8 Nordeste 28 Norte 0 -- -- 53
2019-08-14 18:00:00 25.2 8 Nordeste 26 Norte 0 -- -- 50
2019-08-14 17:00:00 26.9 12 Norte 22 Nordeste 0 -- -- 44
2019-08-14 16:00:00 27.2 9 Nordeste 25 Noroeste 0 -- -- 41
2019-08-14 15:00:00 27.2 9 Noroeste 22 Noroeste 0 -- -- 39
2019-08-14 14:00:00 26.1 8 Noroeste 22 Noroeste 0 -- -- 40
2019-08-14 13:00:00 24.2 10 Oeste 22 Noroeste 0 -- -- 41
2019-08-14 12:00:00 23.3 7 Oeste 18 Sudoeste 0 -- -- 43
2019-08-14 11:00:00 21.1 5 Sudoeste 12 Sudoeste 0 -- -- 47
2019-08-14 10:00:00 16.6 0 Calma 4 Oeste 0 -- -- 62
2019-08-14 09:00:00 10.2 0 Calma 3 Este 0 -- -- 96
2019-08-14 08:00:00 7.1 0 Calma 6 Este 0 -- -- 95
2019-08-14 07:00:00 7.5 4 Este 6 Este 0 -- -- 95
2019-08-14 06:00:00 7.3 2 Este 6 Nordeste 0 -- -- 94
2019-08-14 05:00:00 7.1 3 Este 5 Sudeste 0 -- -- 93
2019-08-14 04:00:00 7.4 2 Nordeste 5 Norte 0 -- -- 93
2019-08-14 03:00:00 7.7 3 Este 5 Este 0 -- -- 92
2019-08-14 02:00:00 8.1 2 Nordeste 5 Nordeste 0 -- -- 90
2019-08-14 01:00:00 9.1 2 Nordeste 5 Nordeste 0 -- -- 91
2019-08-14 00:00:00 10.2 0 Calma 7 Nordeste -- -- -- 88
2019-08-13 23:00:00 11.3 3 Norte 5 Nordeste 0 -- -- 84
2019-08-13 22:00:00 13.5 0 Calma 11 Este 0 -- -- 78
2019-08-13 21:00:00 15.6 5 Este 18 Nordeste 0 -- -- 70
2019-08-13 20:00:00 17.3 7 Este 23 Este 0 -- -- 64
2019-08-13 19:00:00 18.8 8 Este 23 Este 0 -- -- 60
2019-08-13 18:00:00 20.8 8 Norte 21 Norte 0 -- -- 49
2019-08-13 17:00:00 21.2 10 Norte 24 Norte 0 -- -- 47
2019-08-13 16:00:00 20.9 8 Nordeste 22 Norte 0 -- -- 48
2019-08-13 15:00:00 20.7 7 Este 17 Este 0 -- -- 46
2019-08-13 14:00:00 19.2 6 Este 19 Nordeste 0 -- -- 50
2019-08-13 13:00:00 18.3 5 Nordeste 15 Noroeste 0 -- -- 51
2019-08-13 12:00:00 16.6 6 Este 18 Este 0 -- -- 58
2019-08-13 11:00:00 15.3 6 Este 19 Este 0 -- -- 64
2019-08-13 10:00:00 13.7 5 Nordeste 14 Norte 0 -- -- 76
2019-08-13 09:00:00 10 3 Sudoeste 6 Sudoeste 0 -- -- 97
2019-08-13 08:00:00 8 0 Calma 6 Sudoeste 0 -- -- 97
2019-08-13 07:00:00 7.7 3 Sudoeste 7 Nordeste 0 -- -- 96
2019-08-13 06:00:00 7.7 0 Calma 4 Nordeste 0 -- -- 96
2019-08-13 05:00:00 7.8 0 Calma 5 Nordeste 0 -- -- 95
2019-08-13 04:00:00 8.2 0 Calma 5 Sudoeste 0 -- -- 93
2019-08-13 03:00:00 8.9 0 Calma 11 Norte 0 -- -- 91
2019-08-13 02:00:00 9.6 4 Nordeste 15 Nordeste 0 -- -- 91
2019-08-13 01:00:00 10.2 6 Nordeste 20 Norte 0 -- -- 88
2019-08-13 00:00:00 10.4 8 Norte 17 Norte 0 -- -- 88
2019-08-12 23:00:00 11 5 Norte 19 Este 0 -- -- 87
2019-08-12 22:00:00 11.4 5 Norte 18 Norte 0 -- -- 86
2019-08-12 21:00:00 12 7 Nordeste 27 Noroeste 0 -- -- 81
2019-08-12 20:00:00 13.2 9 Norte 24 Nordeste 0 -- -- 73
2019-08-12 19:00:00 14.5 14 Norte 27 Norte 0 -- -- 68
2019-08-12 18:00:00 16.7 10 Norte 30 Norte 0 -- -- 62
2019-08-12 17:00:00 16.5 12 Norte 26 Norte 0 -- -- 61
2019-08-12 16:00:00 17.4 10 Norte 27 Norte 0 -- -- 54
2019-08-12 15:00:00 18.2 12 Norte 25 Norte 0 -- -- 55
2019-08-12 14:00:00 18.3 12 Norte 22 Noroeste 0 -- -- 53
2019-08-12 13:00:00 16.8 9 Noroeste 21 Noroeste 0 -- -- 57
2019-08-12 12:00:00 15.5 5 Norte 16 Norte 0 -- -- 63
2019-08-12 11:00:00 14.8 9 Noroeste 19 Noroeste 0 -- -- 65
2019-08-12 10:00:00 13.4 6 Noroeste 18 Noroeste 0 -- -- 70
2019-08-12 09:00:00 9.7 3 Nordeste 9 Nordeste 0 -- -- 86
2019-08-12 08:00:00 7.6 2 Sur 4 Sudeste 0 -- -- 91
2019-08-12 07:00:00 8.8 0 Calma 4 Sudeste 0 -- -- 87
2019-08-12 06:00:00 9.5 4 Nordeste 9 Oeste 0 -- -- 83
2019-08-12 05:00:00 9.6 3 Norte 7 Noroeste 0 -- -- 85
2019-08-12 04:00:00 10 2 Nordeste 10 Norte 0 -- -- 85
2019-08-12 03:00:00 10.8 3 Norte 14 Norte 0 -- -- 84
2019-08-12 02:00:00 11 5 Norte 20 Norte 0 -- -- 83
2019-08-12 01:00:00 11.1 8 Norte 21 Norte 0 -- -- 82
2019-08-12 00:00:00 11.3 4 Nordeste 14 Noroeste 0 -- -- 86
2019-08-11 23:00:00 11.3 5 Noroeste 17 Nordeste 0 -- -- 89
2019-08-11 22:00:00 11.6 3 Nordeste 20 Norte 0 -- -- 86
2019-08-11 21:00:00 12 8 Norte 22 Norte 0 -- -- 88
2019-08-11 20:00:00 13.1 8 Nordeste 31 Norte 0 -- -- 88
2019-08-11 19:00:00 13.8 14 Norte 30 Noroeste 0 -- -- 89
2019-08-11 18:00:00 14.2 11 Norte 28 Norte 0 -- -- 90
2019-08-11 17:00:00 15.4 11 Nordeste 28 Norte 1.8 -- -- 88
2019-08-11 16:00:00 18.6 9 Este 22 Nordeste 0 -- -- 67
2019-08-11 15:00:00 17.8 8 Nordeste 23 Este 0 -- -- 72
2019-08-11 14:00:00 18.2 4 Este 17 Nordeste 0 -- -- 69
2019-08-11 13:00:00 15.8 5 Nordeste 17 Nordeste 0 -- -- 82
2019-08-11 12:00:00 15 7 Este 18 Nordeste 0 -- -- 86
2019-08-11 11:00:00 15.5 3 Sudeste 13 Sudeste 0 -- -- 85
2019-08-11 10:00:00 14.3 3 Sudeste 12 Este 0 -- -- 91
2019-08-11 09:00:00 13 0 Calma 8 Este 0 -- -- 96
2019-08-11 08:00:00 12.3 2 Sudeste 8 Este 0 -- -- 97
2019-08-11 07:00:00 12.3 3 Sudeste 8 Sur 1.4 -- -- 96
2019-08-11 06:00:00 12.4 5 Noroeste 17 Noroeste 0.8 -- -- 96
2019-08-11 05:00:00 12.5 6 Noroeste 15 Noroeste 0.8 -- -- 94
2019-08-11 04:00:00 13 2 Este 18 Nordeste 0 -- -- 85
2019-08-11 03:00:00 13.2 8 Este 16 Nordeste 0 -- -- 84
2019-08-11 02:00:00 13.2 5 Este 20 Este 0 -- -- 88
2019-08-11 01:00:00 13.2 6 Nordeste 21 Nordeste 0 -- -- 87
2019-08-11 00:00:00 13.4 3 Sur 14 Noroeste 0 -- -- 85
2019-08-10 23:00:00 13.7 3 Nordeste 15 Noroeste 0 -- -- 82
2019-08-10 22:00:00 13.8 4 Nordeste 21 Nordeste 0 -- -- 82
2019-08-10 21:00:00 14.8 6 Nordeste 22 Nordeste 0 -- -- 78
2019-08-10 20:00:00 15.9 10 Nordeste 30 Norte 0 -- -- 74
2019-08-10 19:00:00 17.4 9 Norte 32 Norte 0 -- -- 70
2019-08-10 18:00:00 18.9 9 Nordeste 26 Nordeste 0 -- -- 67
2019-08-10 17:00:00 20.4 12 Nordeste 33 Norte 0 -- -- 64
2019-08-10 16:00:00 21.2 14 Este 28 Este 0 -- -- 60
2019-08-10 15:00:00 20.1 10 Nordeste 27 Nordeste 0 -- -- 65
2019-08-10 14:00:00 21.3 7 Nordeste 21 Este 0 -- -- 59
2019-08-10 13:00:00 19.1 7 Este 16 Nordeste 0 -- -- 68
2019-08-10 12:00:00 19.1 5 Norte 14 Este 0 -- -- 69
2019-08-10 11:00:00 18.7 6 Este 14 Este 0 -- -- 74
2019-08-10 10:00:00 15.8 2 Sudeste 9 Nordeste 0 -- -- 84
2019-08-10 09:00:00 12.9 2 Este 5 Sudeste 0 -- -- 94
2019-08-10 08:00:00 11.4 3 Este 5 Este 0 -- -- 95
2019-08-10 07:00:00 10.7 0 Calma 6 Sudeste 0 -- -- 92
2019-08-10 06:00:00 11.2 3 Este 5 Este 0 -- -- 94
2019-08-10 05:00:00 11.1 0 Calma 4 Este 0 -- -- 91
2019-08-10 04:00:00 11.3 0 Calma 5 Norte 0 -- -- 91
2019-08-10 03:00:00 11.9 3 Nordeste 6 Este 0 -- -- 90
2019-08-10 02:00:00 13 2 Este 10 Sudoeste 0 -- -- 83
2019-08-10 01:00:00 14.4 4 Sudoeste 20 Sudoeste 0 -- -- 79
2019-08-10 00:00:00 16 14 Sudoeste 26 Sur 0 -- -- 72
2019-08-09 23:00:00 17.1 10 Sudoeste 18 Sudeste 0 -- -- 64
2019-08-09 22:00:00 19.6 10 Sur 26 Sur 0 -- -- 53
2019-08-09 21:00:00 22.6 14 Oeste 29 Oeste 0 -- -- 40
2019-08-09 20:00:00 23.5 8 Oeste 39 Oeste 0 -- -- 35
2019-08-09 19:00:00 24.9 7 Sudoeste 43 Sudoeste 0 -- -- 33
2019-08-09 18:00:00 27.2 17 Sudoeste 53 Sudeste 0 -- -- 32
2019-08-09 17:00:00 26.5 10 Oeste 42 Sudeste 0 -- -- 40
2019-08-09 16:00:00 22.7 15 Sur 48 Sudoeste 0 -- -- 63
2019-08-09 15:00:00 20.4 21 Sur 44 Sur 0 -- -- 73
2019-08-09 14:00:00 19.6 17 Sur 36 Sur 0 -- -- 84
2019-08-09 13:00:00 19.3 7 Sudoeste 38 Oeste 1 -- -- 89
2019-08-09 12:00:00 20.7 16 Sudoeste 36 Sudoeste 0 -- -- 78
2019-08-09 11:00:00 21.3 16 Sur 40 Sur 0 -- -- 71
2019-08-09 10:00:00 22.5 15 Sur 42 Sur 0 -- -- 66
2019-08-09 09:00:00 20.2 13 Sur 42 Sur 0 -- -- 73
2019-08-09 08:00:00 19.7 17 Sur 40 Sudeste 0 -- -- 71
2019-08-09 07:00:00 20 16 Sur 38 Sudeste 0 -- -- 69
2019-08-09 06:00:00 20.4 18 Sur 46 Sur 0 -- -- 69
2019-08-09 05:00:00 20.9 20 Sur 45 Sudeste 0 -- -- 67
2019-08-09 04:00:00 21.3 17 Sur 47 Sur 0 -- -- 66
2019-08-09 03:00:00 22 14 Sur 43 Sur 0 -- -- 63
2019-08-09 02:00:00 22.4 8 Sudeste 17 Sudeste 0 -- -- 63
2019-08-09 01:00:00 23.2 10 Noroeste 28 Oeste 0 -- -- 58
2019-08-09 00:00:00 23.9 7 Noroeste 22 Oeste 0 -- -- 53
2019-08-08 23:00:00 24.9 10 Noroeste 29 Noroeste 0 -- -- 51
2019-08-08 22:00:00 25.3 9 Oeste 23 Oeste 0 -- -- 53
2019-08-08 21:00:00 26.9 5 Sur 23 Sur 0 -- -- 49
2019-08-08 20:00:00 27.6 10 Sur 43 Sudoeste 0 -- -- 47
2019-08-08 19:00:00 28.4 17 Sur 38 Sur 0 -- -- 45
2019-08-08 18:00:00 27.7 12 Sur 31 Sudoeste 0 -- -- 50
2019-08-08 17:00:00 26.6 13 Sudoeste 38 Sur 0 -- -- 54
2019-08-08 16:00:00 25.9 12 Sur 31 Sudoeste 0 -- -- 57
2019-08-08 15:00:00 25.4 14 Sudoeste 42 Sudoeste 0 -- -- 59
2019-08-08 14:00:00 25.2 24 Sudoeste 50 Sur 0 -- -- 60
2019-08-08 13:00:00 23.1 8 Sudeste 31 Sur 0 -- -- 64
2019-08-08 12:00:00 24 18 Sudoeste 42 Sudoeste 0 -- -- 61
2019-08-08 11:00:00 22.1 19 Sudoeste 42 Sudoeste 0 -- -- 66
2019-08-08 10:00:00 21.4 15 Sudoeste 30 Sur 0 -- -- 69
2019-08-08 09:00:00 18.8 15 Sur 39 Sur 0 -- -- 80
2019-08-08 08:00:00 17.7 13 Sur 33 Noroeste 0 -- -- 82
2019-08-08 07:00:00 17.4 10 Sudoeste 33 Oeste 0 -- -- 81
2019-08-08 06:00:00 17.6 15 Oeste 35 Oeste 0 -- -- 80
2019-08-08 05:00:00 16.9 8 Sur 23 Sudoeste 0 -- -- 82
2019-08-08 04:00:00 17 12 Sudoeste 28 Oeste 0 -- -- 80
2019-08-08 03:00:00 17.1 7 Sudoeste 19 Sudoeste 0 -- -- 80
2019-08-08 02:00:00 17.7 13 Oeste 31 Oeste 0 -- -- 78
2019-08-08 01:00:00 18 9 Sudoeste 26 Oeste 0 -- -- 78
2019-08-08 00:00:00 18.6 8 Oeste 27 Oeste 0 -- -- 73
2019-08-07 23:00:00 19.7 6 Oeste 28 Sudoeste 0 -- -- 66
2019-08-07 22:00:00 19.8 10 Oeste 22 Oeste 0 -- -- 64
2019-08-07 21:00:00 20.4 12 Oeste 27 Noroeste 0 -- -- 62
2019-08-07 20:00:00 19.8 10 Oeste 38 Noroeste 0 -- -- 71
2019-08-07 19:00:00 24.3 14 Oeste 31 Oeste 0 -- -- 46
2019-08-07 18:00:00 25 11 Sur 33 Sur 0 -- -- 44
2019-08-07 17:00:00 25.1 6 Sur 12 Sudoeste 0 -- -- 49
2019-08-07 16:00:00 25.2 2 Norte 9 Oeste 0 -- -- 50
2019-08-07 15:00:00 25.9 4 Noroeste 18 Sur 0 -- -- 48
2019-08-07 14:00:00 24.8 4 Sur 14 Sudoeste 0 -- -- 50
2019-08-07 13:00:00 24 5 Este 15 Este 0 -- -- 54
2019-08-07 12:00:00 22.9 6 Sudeste 14 Sudeste 0 -- -- 62
2019-08-07 11:00:00 21.2 4 Este 12 Este 0 -- -- 64
2019-08-07 10:00:00 19.3 3 Nordeste 11 Nordeste 0 -- -- 80
2019-08-07 09:00:00 16.2 0 Calma 6 Este 0 -- -- 96
2019-08-07 08:00:00 13.9 2 Noroeste 6 Norte 0 -- -- 97
2019-08-07 07:00:00 13.8 0 Calma 4 Este 0 -- -- 97
2019-08-07 06:00:00 14.2 0 Calma 6 Sudeste 0 -- -- 96
2019-08-07 05:00:00 14.4 2 Este 6 Sudeste 0 -- -- 97
2019-08-07 04:00:00 14.4 3 Sudeste 5 Sudeste 0 -- -- 97
2019-08-07 03:00:00 14.5 3 Este 5 Noroeste 0 -- -- 96
2019-08-07 02:00:00 14.8 2 Sudeste 9 Sur 0 -- -- 95
2019-08-07 01:00:00 15.1 4 Este 21 Este 0 -- -- 95
2019-08-07 00:00:00 15.2 8 Nordeste 28 Noroeste 0.8 -- -- 93
2019-08-06 23:00:00 15.4 10 Nordeste 23 Este 0.2 -- -- 91
2019-08-06 22:00:00 16.3 8 Nordeste 26 Nordeste 0 -- -- 87
2019-08-06 21:00:00 17.7 10 Nordeste 28 Nordeste 0 -- -- 85
2019-08-06 20:00:00 19.7 10 Nordeste 26 Este 0 -- -- 77
2019-08-06 19:00:00 22.1 9 Nordeste 25 Nordeste 0 -- -- 68
2019-08-06 18:00:00 23.8 10 Nordeste 31 Nordeste 0 -- -- 62
2019-08-06 17:00:00 26.2 12 Este 30 Este 0 -- -- 50
2019-08-06 16:00:00 28.8 6 Nordeste 19 Nordeste 0 -- -- 42
2019-08-06 15:00:00 29 6 Noroeste 22 Sudoeste 0 -- -- 40
2019-08-06 14:00:00 28.3 8 Sudoeste 21 Sudoeste 0 -- -- 43
2019-08-06 13:00:00 25.3 4 Oeste 13 Sudoeste 0 -- -- 49
2019-08-06 12:00:00 24.1 6 Sur 13 Sur 0 -- -- 53
2019-08-06 11:00:00 22.4 4 Sudoeste 12 Sudoeste 0 -- -- 55
2019-08-06 10:00:00 19.1 0 Calma 5 Oeste 0 -- -- 65
2019-08-06 09:00:00 14.1 0 Calma 7 Sudeste 0 -- -- 94
2019-08-06 08:00:00 10.3 4 Este 7 Sudeste 0 -- -- 96
2019-08-06 07:00:00 10.3 3 Este 5 Este 0 -- -- 95
2019-08-06 06:00:00 10.7 2 Nordeste 6 Sudeste 0 -- -- 93
2019-08-06 05:00:00 11 2 Nordeste 5 Nordeste 0 -- -- 90
2019-08-06 04:00:00 12 2 Sudeste 5 Sudeste 0 -- -- 87
2019-08-06 03:00:00 13.5 0 Calma 9 Este 0 -- -- 80
2019-08-06 02:00:00 15.1 2 Nordeste 12 Nordeste 0 -- -- 74
2019-08-06 01:00:00 15.4 6 Noroeste 17 Nordeste 0 -- -- 78
2019-08-06 00:00:00 15.6 3 Noroeste 13 Este 0 -- -- 85
2019-08-05 23:00:00 16.1 3 Norte 13 Nordeste 0 -- -- 87
2019-08-05 22:00:00 17.3 4 Sudeste 15 Este 0 -- -- 84
2019-08-05 21:00:00 19 4 Este 22 Este 0 -- -- 77
2019-08-05 20:00:00 20.9 8 Nordeste 23 Este 0 -- -- 72
2019-08-05 19:00:00 23 9 Nordeste 23 Este 0 -- -- 66
2019-08-05 18:00:00 25.2 10 Nordeste 34 Este 0 -- -- 60
2019-08-05 17:00:00 26.5 9 Nordeste 28 Noroeste 0 -- -- 55
2019-08-05 16:00:00 26.6 10 Este 26 Este 0 -- -- 55
2019-08-05 15:00:00 26.6 10 Nordeste 23 Este 0 -- -- 54
2019-08-05 14:00:00 26.3 8 Nordeste 17 Este 0 -- -- 52
2019-08-05 13:00:00 24.8 5 Sudeste 15 Sudeste 0 -- -- 55
2019-08-05 12:00:00 23.7 5 Norte 13 Noroeste 0 -- -- 57
2019-08-05 11:00:00 20.9 5 Este 13 Nordeste 0 -- -- 64
2019-08-05 10:00:00 19 2 Este 6 Sudeste 0 -- -- 71
2019-08-05 09:00:00 14.1 0 Calma 5 Nordeste 0 -- -- 100
2019-08-05 08:00:00 10.8 0 Calma 4 Nordeste 0 -- -- 98
2019-08-05 07:00:00 10.6 2 Sudeste 6 Nordeste 0 -- -- 97
2019-08-05 06:00:00 10.8 0 Calma 4 Nordeste 0 -- -- 96
2019-08-05 05:00:00 11.5 2 Este 4 Nordeste 0 -- -- 95
2019-08-05 04:00:00 12 0 Calma 4 Sudeste 0 -- -- 95
2019-08-05 03:00:00 12.6 3 Este 5 Este 0 -- -- 93
2019-08-05 02:00:00 13.2 0 Calma 4 Sudoeste 0 -- -- 93
2019-08-05 01:00:00 14.1 3 Este 5 Noroeste 0 -- -- 90
2019-08-05 00:00:00 15.3 3 Norte 15 Nordeste 0 -- -- 86
2019-08-04 23:00:00 15.3 7 Este 18 Este 0 -- -- 90
2019-08-04 22:00:00 15.2 5 Norte 22 Este 0 -- -- 92
2019-08-04 21:00:00 15.6 9 Nordeste 26 Nordeste 0 -- -- 92
2019-08-04 20:00:00 17.7 10 Nordeste 29 Este 0 -- -- 85
2019-08-04 19:00:00 21.5 12 Nordeste 24 Nordeste 0 -- -- 73
2019-08-04 18:00:00 23.1 10 Nordeste 26 Norte 0 -- -- 68
2019-08-04 17:00:00 25.3 11 Nordeste 27 Nordeste 0 -- -- 60
2019-08-04 16:00:00 26.4 8 Nordeste 20 Nordeste 0 -- -- 58
2019-08-04 15:00:00 26.1 8 Nordeste 14 Norte 0 -- -- 59
2019-08-04 14:00:00 24.3 4 Nordeste 13 Nordeste 0 -- -- 64
2019-08-04 13:00:00 20.8 3 Noroeste 11 Oeste 0 -- -- 75
2019-08-04 12:00:00 17.9 3 Oeste 9 Sudoeste 0 -- -- 85
2019-08-04 11:00:00 16.4 3 Nordeste 12 Nordeste 0 -- -- 91
2019-08-04 10:00:00 15.8 3 Este 10 Este 0 -- -- 91
2019-08-04 09:00:00 15.4 3 Nordeste 12 Nordeste 0 -- -- 94
2019-08-04 08:00:00 15.3 5 Sudeste 14 Este 0 -- -- 93
2019-08-04 07:00:00 15.7 3 Sudeste 14 Sudeste 0 -- -- 93
2019-08-04 06:00:00 15.9 2 Norte 9 Sudeste 0 -- -- 92
2019-08-04 05:00:00 16.1 3 Este 11 Sudeste 0 -- -- 91
2019-08-04 04:00:00 16.1 3 Sudeste 10 Sudeste 0 -- -- 90
2019-08-04 03:00:00 16.1 2 Sur 13 Este 0 -- -- 90
2019-08-04 02:00:00 16.2 4 Sudeste 13 Sudeste 0 -- -- 90
2019-08-04 01:00:00 16.4 6 Sudeste 13 Este 0 -- -- 90
2019-08-04 00:00:00 16.6 0 Calma 12 Este 0 -- -- 90
2019-08-03 23:00:00 17.2 4 Sudeste 10 Este 0 -- -- 86
2019-08-03 22:00:00 18.9 3 Este 16 Nordeste 0 -- -- 79
2019-08-03 21:00:00 21.5 5 Noroeste 26 Este 0 -- -- 69
2019-08-03 20:00:00 24.4 11 Este 30 Este 0 -- -- 62
2019-08-03 19:00:00 27.1 10 Este 24 Este 0 -- -- 55
2019-08-03 18:00:00 29.5 9 Nordeste 24 Norte 0 -- -- 46
2019-08-03 17:00:00 31 7 Norte 21 Norte 0 -- -- 37
2019-08-03 16:00:00 30.4 6 Este 19 Sur 0 -- -- 34
2019-08-03 15:00:00 29.1 5 Nordeste 15 Nordeste 0 -- -- 38
2019-08-03 14:00:00 27.9 5 Este 15 Este 0 -- -- 38
2019-08-03 13:00:00 26.8 6 Este 14 Sudeste 0 -- -- 41
2019-08-03 12:00:00 25.9 6 Este 15 Este 0 -- -- 40
2019-08-03 11:00:00 24.3 3 Sudeste 7 Este 0 -- -- 46
2019-08-03 10:00:00 20 0 Calma 0 Calma 0 -- -- 74
2019-08-03 09:00:00 13.5 0 Calma 4 Este 0 -- -- 91
2019-08-03 08:00:00 9.2 0 Calma -- -- 0 -- -- 94
2019-08-03 07:00:00 9 0 Calma -- -- 0 -- -- 93
2019-08-03 06:00:00 9.3 0 Calma 3 Nordeste 0 -- -- 93
2019-08-03 05:00:00 9.7 2 Este 4 Este 0 -- -- 92
2019-08-03 04:00:00 10.2 0 Calma 5 Este 0 -- -- 92
2019-08-03 03:00:00 10.9 0 Calma 8 Nordeste 0 -- -- 93
2019-08-03 02:00:00 11.3 0 Calma 4 Nordeste 0 -- -- 93
2019-08-03 01:00:00 12.3 3 Este 5 Nordeste 0 -- -- 91
2019-08-03 00:00:00 13.7 0 Calma 5 Nordeste 0 -- -- 89
2019-08-02 23:00:00 15.7 0 Calma 7 Este 0 -- -- 85
2019-08-02 22:00:00 17.8 4 Este 14 Nordeste 0 -- -- 79
2019-08-02 21:00:00 20.4 5 Este 17 Este 0 -- -- 67
2019-08-02 20:00:00 22.2 6 Norte 23 Norte 0 -- -- 62
2019-08-02 19:00:00 23.9 8 Nordeste 21 Nordeste 0 -- -- 56
2019-08-02 18:00:00 25.7 5 Norte 18 Este 0 -- -- 51
2019-08-02 17:00:00 25.1 11 Nordeste 23 Nordeste 0 -- -- 54
2019-08-02 16:00:00 25.3 8 Nordeste 19 Nordeste 0 -- -- 55
2019-08-02 15:00:00 24.4 7 Nordeste 19 Este 0 -- -- 59
2019-08-02 14:00:00 23.5 6 Nordeste 15 Nordeste 0 -- -- 59
2019-08-02 13:00:00 22 5 Nordeste 14 Este 0 -- -- 65
2019-08-02 12:00:00 20 5 Este 13 Este 0 -- -- 71
2019-08-02 11:00:00 17.3 4 Norte 14 Este 0 -- -- 80
2019-08-02 10:00:00 15.4 3 Sudeste 9 Sur 0 -- -- 85
2019-08-02 09:00:00 14.3 4 Sudeste 11 Nordeste 0 -- -- 90
2019-08-02 08:00:00 13.7 4 Este 13 Sudeste 0 -- -- 92
2019-08-02 07:00:00 13.7 3 Sudeste 9 Sudeste 0 -- -- 94
2019-08-02 06:00:00 13.8 2 Este 6 Nordeste 0 -- -- 95
2019-08-02 05:00:00 13.7 2 Nordeste 8 Sudeste 0 -- -- 96
2019-08-02 04:00:00 13.7 0 Calma 10 Este 0 -- -- 96
2019-08-02 03:00:00 13.7 4 Este 11 Norte 0 -- -- 96
2019-08-02 02:00:00 13.7 0 Calma 10 Sudeste 0 -- -- 97
2019-08-02 01:00:00 13.6 3 Noroeste 15 Noroeste 0 -- -- 98
2019-08-02 00:00:00 13.6 5 Nordeste 18 Oeste 0 -- -- 98
2019-08-01 23:00:00 13.7 4 Noroeste 19 Noroeste 0 -- -- 98
2019-08-01 22:00:00 13.7 5 Noroeste 19 Noroeste 0 -- -- 98
2019-08-01 21:00:00 14.1 8 Norte 20 Noroeste 0 -- -- 97
2019-08-01 20:00:00 14.7 10 Norte 20 Nordeste 0 -- -- 97
2019-08-01 19:00:00 15.6 4 Norte 18 Norte 0 -- -- 94
2019-08-01 18:00:00 16 6 Nordeste 19 Norte 0 -- -- 92
2019-08-01 17:00:00 17.9 5 Nordeste 15 Norte 0 -- -- 87
2019-08-01 16:00:00 19 4 Este 16 Nordeste 0 -- -- 82
2019-08-01 15:00:00 18 5 Norte 14 Nordeste 0 -- -- 88
2019-08-01 14:00:00 16.8 6 Nordeste 10 Nordeste 0 -- -- 91
2019-08-01 13:00:00 16.2 5 Nordeste 10 Nordeste 0 -- -- 92
2019-08-01 12:00:00 16 3 Este 9 Este 0 -- -- 91
2019-08-01 11:00:00 15.4 2 Sudeste 9 Este 0 -- -- 96
2019-08-01 10:00:00 14.2 5 Este 10 Nordeste 0 -- -- 98
2019-08-01 09:00:00 13.7 0 Calma 13 Este 0 -- -- 99
2019-08-01 08:00:00 13.2 4 Nordeste 14 Este 0 -- -- 98
2019-08-01 07:00:00 13.1 3 Noroeste 12 Sur 0 -- -- 98
2019-08-01 06:00:00 13 3 Sudoeste 17 Sudoeste 0 -- -- 98
2019-08-01 05:00:00 13 6 Sudoeste 20 Noroeste 10 -- -- 97
2019-08-01 04:00:00 13.1 3 Norte 23 Nordeste 0 -- -- 96
2019-08-01 03:00:00 13.1 4 Sudeste 18 Sudeste 0 -- -- 94
2019-08-01 02:00:00 13.3 4 Sudoeste 10 Sudoeste 0 -- -- 92
2019-08-01 01:00:00 13.3 3 Oeste 14 Norte 0 -- -- 91
2019-08-01 00:00:00 13.5 3 Noroeste 10 Este 0 -- -- 90
2019-07-31 23:00:00 13.6 3 Sudeste 15 Este 0 -- -- 89
2019-07-31 22:00:00 14.6 4 Este 18 Nordeste 0 -- -- 84
2019-07-31 21:00:00 16.2 8 Nordeste 23 Nordeste 0 -- -- 76
2019-07-31 20:00:00 17.6 10 Nordeste 24 Norte 0 -- -- 71
2019-07-31 19:00:00 19.4 7 Nordeste 17 Este 0 -- -- 65
2019-07-31 18:00:00 20.5 6 Este 18 Nordeste 0 -- -- 59
2019-07-31 17:00:00 21.3 5 Este 20 Sudeste 0 -- -- 56
2019-07-31 16:00:00 21.9 7 Nordeste 19 Norte 0 -- -- 52
2019-07-31 15:00:00 21.3 7 Nordeste 20 Nordeste 0 -- -- 52
2019-07-31 14:00:00 20.6 7 Nordeste 20 Sudeste 0 -- -- 53
2019-07-31 13:00:00 19.4 8 Nordeste 18 Nordeste 0 -- -- 56
2019-07-31 12:00:00 18.4 5 Este 18 Nordeste 0 -- -- 57
2019-07-31 11:00:00 16.5 4 Sudeste 16 Este 0 -- -- 62
2019-07-31 10:00:00 14.3 5 Este 15 Este 0 -- -- 71
2019-07-31 09:00:00 10 0 Calma 4 Nordeste 0 -- -- 92
2019-07-31 08:00:00 6.9 2 Este 4 Nordeste 0 -- -- 95
2019-07-31 07:00:00 7.1 0 Calma 5 Sudeste 0 -- -- 93
2019-07-31 06:00:00 8.4 0 Calma 4 Nordeste 0 -- -- 90
2019-07-31 05:00:00 10.2 2 Sudeste 9 Este 0 -- -- 86
2019-07-31 04:00:00 11 2 Sudeste 10 Nordeste 0 -- -- 88
2019-07-31 03:00:00 11.3 3 Sudeste 11 Nordeste 0 -- -- 88
2019-07-31 02:00:00 11.4 0 Calma 9 Este 0 -- -- 87
2019-07-31 01:00:00 11.5 3 Sur 18 Sudeste 0 -- -- 84
2019-07-31 00:00:00 11.8 4 Sudoeste 23 Este 0 -- -- 84
2019-07-30 23:00:00 12.3 2 Sudoeste 12 Norte 0 -- -- 83
2019-07-30 22:00:00 12.6 6 Nordeste 18 Noroeste 0 -- -- 82
2019-07-30 21:00:00 13.8 6 Norte 22 Norte 0 -- -- 76
2019-07-30 20:00:00 15.6 9 Norte 31 Norte 0 -- -- 70
2019-07-30 19:00:00 17.2 10 Norte 30 Noroeste 0 -- -- 60
2019-07-30 18:00:00 18.5 15 Norte 30 Norte 0 -- -- 55
2019-07-30 17:00:00 20.2 11 Norte 25 Norte 0 -- -- 50
2019-07-30 16:00:00 18.9 7 Sudeste 22 Este 0 -- -- 50
2019-07-30 15:00:00 19.7 9 Nordeste 22 Sudeste 0 -- -- 49
2019-07-30 14:00:00 17.6 7 Norte 15 Nordeste 0 -- -- 52
2019-07-30 13:00:00 17 6 Sudeste 17 Norte 0 -- -- 55
2019-07-30 12:00:00 16 7 Noroeste 17 Norte 0 -- -- 61
2019-07-30 11:00:00 15.1 7 Noroeste 14 Noroeste 0 -- -- 62
2019-07-30 10:00:00 13 4 Noroeste 15 Norte 0 -- -- 70
2019-07-30 09:00:00 11.5 4 Norte 10 Norte 0 -- -- 79
2019-07-30 08:00:00 9.8 2 Norte 9 Nordeste 0 -- -- 89
2019-07-30 07:00:00 10.8 6 Norte 14 Norte 0 -- -- 85
2019-07-30 06:00:00 11.4 4 Nordeste 19 Norte 0 -- -- 90
2019-07-30 05:00:00 11.4 8 Norte 18 Norte 0 -- -- 92
2019-07-30 04:00:00 11.8 6 Nordeste 17 Nordeste 0 -- -- 91
2019-07-30 03:00:00 11.9 5 Nordeste 16 Nordeste 0 -- -- 92
2019-07-30 02:00:00 12 8 Nordeste 22 Este 0 -- -- 92
2019-07-30 01:00:00 12.2 4 Nordeste 17 Noroeste 0 -- -- 92
2019-07-30 00:00:00 12.7 4 Nordeste 18 Noroeste 0 -- -- 93
2019-07-29 23:00:00 12.9 5 Nordeste 19 Norte 0 -- -- 93
2019-07-29 22:00:00 13.1 6 Nordeste 16 Nordeste 0 -- -- 91
2019-07-29 21:00:00 13.5 6 Norte 25 Norte 0 -- -- 89
2019-07-29 20:00:00 14.2 6 Norte 21 Noroeste 0 -- -- 86
2019-07-29 19:00:00 15.4 8 Norte 37 Norte 0 -- -- 82
2019-07-29 18:00:00 17.2 15 Nordeste 33 Nordeste 0 -- -- 78
2019-07-29 17:00:00 20.3 11 Nordeste 35 Nordeste 0 -- -- 70
2019-07-29 16:00:00 21.6 13 Nordeste 31 Norte 0 -- -- 65
2019-07-29 15:00:00 26.5 12 Sur 33 Sudeste 0 -- -- 34
2019-07-29 14:00:00 25.7 10 Sur 27 Sur 0 -- -- 36
2019-07-29 13:00:00 24.1 9 Sur 27 Sur 0 -- -- 38
2019-07-29 12:00:00 22.7 6 Sur 23 Sudoeste 0 -- -- 43
2019-07-29 11:00:00 20.7 8 Sudoeste 33 Sudoeste 0 -- -- 50
2019-07-29 10:00:00 19.5 8 Sudoeste 26 Sudoeste 0 -- -- 52
2019-07-29 09:00:00 16.9 12 Sudoeste 27 Sudoeste 0 -- -- 60
2019-07-29 08:00:00 13.1 10 Sudoeste 21 Sur 0 -- -- 71
2019-07-29 07:00:00 9.2 0 Calma 9 Oeste 0 -- -- 93
2019-07-29 06:00:00 9.3 0 Calma 7 Noroeste 0 -- -- 93
2019-07-29 05:00:00 9.4 0 Calma 6 Nordeste 0 -- -- 94
2019-07-29 04:00:00 9.7 3 Nordeste 7 Nordeste 0 -- -- 94
2019-07-29 03:00:00 9.8 0 Calma 6 Nordeste 0 -- -- 94
2019-07-29 02:00:00 10.6 4 Nordeste 8 Norte 0 -- -- 94
2019-07-29 01:00:00 11.3 2 Nordeste 5 Nordeste 0 -- -- 93
2019-07-29 00:00:00 12 3 Nordeste 6 Nordeste 0 -- -- 91
2019-07-28 23:00:00 13.3 3 Nordeste 7 Nordeste 0 -- -- 87
2019-07-28 22:00:00 15.6 0 Calma 8 Nordeste 0 -- -- 80
2019-07-28 21:00:00 18.5 4 Este 15 Nordeste 0 -- -- 68
2019-07-28 20:00:00 19.8 7 Este 16 Este 0 -- -- 62
2019-07-28 19:00:00 20.1 8 Nordeste 22 Este 0 -- -- 60
2019-07-28 18:00:00 21.9 7 Nordeste 19 Este 0 -- -- 55
2019-07-28 17:00:00 22.2 5 Norte 13 Norte 0 -- -- 48
2019-07-28 16:00:00 20.9 4 Sur 13 Sudeste 0 -- -- 47
2019-07-28 15:00:00 19.8 4 Nordeste 16 Noroeste 0 -- -- 55
2019-07-28 14:00:00 18.3 5 Noroeste 13 Norte 0 -- -- 63
2019-07-28 13:00:00 18 3 Sur 15 Sudoeste 0 -- -- 65
2019-07-28 12:00:00 16.8 4 Este 17 Sudoeste 0 -- -- 70
2019-07-28 11:00:00 15.9 5 Sudoeste 9 Sudeste 0 -- -- 76
2019-07-28 10:00:00 12.9 2 Sudoeste 8 Sudoeste 0 -- -- 89
2019-07-28 09:00:00 10.7 0 Calma 4 Norte 0 -- -- 100
2019-07-28 08:00:00 9.1 0 Calma 5 Nordeste 0 -- -- 100
2019-07-28 07:00:00 8.2 0 Calma 5 Sudeste 0 -- -- 99
2019-07-28 06:00:00 9 2 Noroeste 7 Nordeste 0 -- -- 98
2019-07-28 05:00:00 9.4 3 Norte 9 Noroeste 0 -- -- 98
2019-07-28 04:00:00 9.5 4 Oeste 10 Sudoeste 0 -- -- 98
2019-07-28 03:00:00 9.7 2 Oeste 7 Noroeste 0 -- -- 97
2019-07-28 02:00:00 10 4 Este 12 Noroeste 0 -- -- 95
2019-07-28 01:00:00 10.2 0 Calma 5 Norte 0 -- -- 96
2019-07-28 00:00:00 10.4 0 Calma 18 Norte 0 -- -- 93
2019-07-27 23:00:00 11 7 Norte 21 Nordeste 0 -- -- 91
2019-07-26 12:00:00 15.2 6 Nordeste 23 Nordeste 0 -- -- 96
2019-07-26 11:00:00 14.9 7 Nordeste 20 Nordeste 0 -- -- 97
2019-07-26 10:00:00 14.8 12 Norte 22 Norte 0 -- -- 98
2019-07-26 09:00:00 15.1 10 Noroeste 22 Norte 0 -- -- 98
2019-07-26 08:00:00 15.8 6 Nordeste 18 Nordeste 0.4 -- -- 98
2019-07-26 07:00:00 15.9 0 Calma 15 Sudoeste 1.2 -- -- 98
2019-07-26 06:00:00 15.7 6 Este 17 Nordeste 0 -- -- 97
2019-07-26 05:00:00 15.6 3 Nordeste 21 Nordeste 1.4 -- -- 97
2019-07-26 04:00:00 15.7 3 Oeste 14 Nordeste 0 -- -- 96
2019-07-26 03:00:00 15.6 3 Nordeste 10 Nordeste 0 -- -- 95
2019-07-26 02:00:00 15.5 3 Oeste 19 Nordeste 0 -- -- 94
2019-07-26 01:00:00 16.1 5 Norte 22 Noroeste 0 -- -- 97
2019-07-26 00:00:00 16.8 5 Oeste 17 Noroeste 0 -- -- 98
2019-07-25 23:00:00 16.9 9 Noroeste 31 Noroeste 0 -- -- 97
2019-07-25 22:00:00 17.4 15 Norte 31 Noroeste 0 -- -- 96
2019-07-25 21:00:00 18.1 13 Nordeste 32 Nordeste 1.6 -- -- 94
2019-07-25 20:00:00 20.5 8 Nordeste 36 Este 0 -- -- 84
2019-07-25 19:00:00 24.8 18 Este 39 Nordeste 0 -- -- 68
2019-07-25 18:00:00 30.6 11 Este 26 Este 0 -- -- 44
2019-07-25 17:00:00 33.3 10 Sur 30 Sudoeste 0 -- -- 31
2019-07-25 16:00:00 33.8 9 Sudoeste 30 Sur 0 -- -- 27
2019-07-25 15:00:00 33.5 14 Sur 30 Sur 0 -- -- 29
2019-07-25 14:00:00 32.7 11 Sudoeste 31 Sudoeste 0 -- -- 30
2019-07-25 13:00:00 30.8 8 Sur 24 Sur 0 -- -- 33
2019-07-25 12:00:00 29.5 11 Sudoeste 23 Sudoeste 0 -- -- 35
2019-07-25 11:00:00 28.2 9 Sudoeste 30 Sur 0 -- -- 37
2019-07-25 10:00:00 26.3 10 Sudoeste 22 Sudoeste 0 -- -- 40
2019-07-25 09:00:00 20.1 0 Calma 5 Sudoeste 0 -- -- 66
2019-07-25 08:00:00 15.8 2 Este 4 Nordeste 0 -- -- 71
2019-07-25 07:00:00 15.6 0 Calma 5 Sudeste 0 -- -- 70
2019-07-25 06:00:00 16.3 3 Este 6 Nordeste 0 -- -- 68
2019-07-25 05:00:00 17 0 Calma 8 Nordeste 0 -- -- 66
2019-07-25 04:00:00 17.1 0 Calma 6 Sudeste 0 -- -- 65
2019-07-25 03:00:00 18.2 0 Calma 6 Nordeste 0 -- -- 61
2019-07-25 02:00:00 18.5 2 Este 8 Este 0 -- -- 59
2019-07-25 01:00:00 19.4 4 Este 6 Este 0 -- -- 55
2019-07-25 00:00:00 20.5 0 Calma 6 Nordeste 0 -- -- 51
2019-07-24 23:00:00 22.3 4 Este 6 Nordeste 0 -- -- 46
2019-07-24 22:00:00 25.5 0 Calma 7 Sudeste 0 -- -- 41
2019-07-24 21:00:00 29.2 2 Sur 23 Sudeste 0 -- -- 34
2019-07-24 20:00:00 28.8 7 Sudeste 21 Sudoeste 0 -- -- 35
2019-07-24 19:00:00 29.2 0 Calma 17 Sudeste 0 -- -- 44
2019-07-24 18:00:00 30.7 7 Este 17 Este 0 -- -- 39
2019-07-24 17:00:00 27.8 4 Este 35 Sur 0 -- -- 53
2019-07-24 16:00:00 34.5 7 Sudoeste 25 Sudoeste 0 -- -- 29
2019-07-24 15:00:00 34.4 10 Sudoeste 26 Sudoeste 0 -- -- 29
2019-07-24 14:00:00 32.5 11 Sur 24 Sudoeste 0 -- -- 29
2019-07-24 13:00:00 31.4 7 Sudoeste 23 Sudoeste 0 -- -- 33
2019-07-24 12:00:00 29.8 9 Sur 20 Sudoeste 0 -- -- 33
2019-07-24 11:00:00 28.2 5 Sudeste 11 Este 0 -- -- 44
2019-07-24 10:00:00 24.5 0 Calma 5 Norte 0 -- -- 52
2019-07-24 09:00:00 19.3 0 Calma 5 Este 0 -- -- 75
2019-07-24 08:00:00 14.3 2 Este 5 Nordeste 0 -- -- 86
2019-07-24 07:00:00 14.4 3 Nordeste 6 Este 0 -- -- 82
2019-07-24 06:00:00 14.4 2 Este 5 Este 0 -- -- 84
2019-07-24 05:00:00 15.3 4 Este 7 Este 0 -- -- 81
2019-07-24 04:00:00 16 0 Calma 6 Este 0 -- -- 81
2019-07-24 03:00:00 17.2 2 Oeste 8 Este 0 -- -- 80
2019-07-24 02:00:00 17.8 4 Nordeste 8 Norte 0 -- -- 78
2019-07-24 01:00:00 17 3 Nordeste 8 Nordeste 0 -- -- 80
2019-07-24 00:00:00 17.6 3 Este 8 Oeste 0 -- -- 76